sensor_id;sensor_type;location;lat;lon;timestamp;pressure;altitude;pressure_sealevel;temperature
79756;BMP280;69239;50.678;12.280;2023-08-06T00:02:17;96786.09;;;17.19
79756;BMP280;69239;50.678;12.280;2023-08-06T00:04:42;96786.84;;;17.20
79756;BMP280;69239;50.678;12.280;2023-08-06T00:07:08;96782.28;;;17.17
79756;BMP280;69239;50.678;12.280;2023-08-06T00:09:33;96768.94;;;17.13
79756;BMP280;69239;50.678;12.280;2023-08-06T00:11:58;96776.56;;;17.15
79756;BMP280;69239;50.678;12.280;2023-08-06T00:14:24;96778.88;;;17.16
79756;BMP280;69239;50.678;12.280;2023-08-06T00:16:49;96766.69;;;17.15
79756;BMP280;69239;50.678;12.280;2023-08-06T00:19:14;96773.91;;;17.15
79756;BMP280;69239;50.678;12.280;2023-08-06T00:21:40;96769.72;;;17.14
79756;BMP280;69239;50.678;12.280;2023-08-06T00:24:05;96773.91;;;17.15
79756;BMP280;69239;50.678;12.280;2023-08-06T00:26:30;96773.50;;;17.13
79756;BMP280;69239;50.678;12.280;2023-08-06T00:28:56;96779.94;;;17.12
79756;BMP280;69239;50.678;12.280;2023-08-06T00:31:21;96787.19;;;17.11
79756;BMP280;69239;50.678;12.280;2023-08-06T00:33:46;96799.34;;;17.12
79756;BMP280;69239;50.678;12.280;2023-08-06T00:36:12;96802.00;;;17.12
79756;BMP280;69239;50.678;12.280;2023-08-06T00:38:37;96801.22;;;17.12
79756;BMP280;69239;50.678;12.280;2023-08-06T00:41:02;96797.44;;;17.09
79756;BMP280;69239;50.678;12.280;2023-08-06T00:43:28;96797.06;;;17.11
79756;BMP280;69239;50.678;12.280;2023-08-06T00:45:53;96791.34;;;17.12
79756;BMP280;69239;50.678;12.280;2023-08-06T00:48:19;96786.44;;;17.11
79756;BMP280;69239;50.678;12.280;2023-08-06T00:50:44;96786.00;;;17.09
79756;BMP280;69239;50.678;12.280;2023-08-06T00:53:10;96786.00;;;17.09
79756;BMP280;69239;50.678;12.280;2023-08-06T00:55:35;96784.47;;;17.08
79756;BMP280;69239;50.678;12.280;2023-08-06T00:58:01;96771.59;;;17.10
79756;BMP280;69239;50.678;12.280;2023-08-06T01:00:27;96773.50;;;17.13
79756;BMP280;69239;50.678;12.280;2023-08-06T01:02:53;96776.16;;;17.13
79756;BMP280;69239;50.678;12.280;2023-08-06T01:05:18;96770.84;;;17.13
79756;BMP280;69239;50.678;12.280;2023-08-06T01:08:08;96771.97;;;17.12
79756;BMP280;69239;50.678;12.280;2023-08-06T01:13:37;96763.25;;;17.15
79756;BMP280;69239;50.678;12.280;2023-08-06T01:16:05;96767.03;;;17.14
79756;BMP280;69239;50.678;12.280;2023-08-06T01:18:31;96765.91;;;17.15
79756;BMP280;69239;50.678;12.280;2023-08-06T01:20:57;96762.88;;;17.13
79756;BMP280;69239;50.678;12.280;2023-08-06T01:23:23;96772.72;;;17.12
79756;BMP280;69239;50.678;12.280;2023-08-06T01:29:21;96784.53;;;17.11
79756;BMP280;69239;50.678;12.280;2023-08-06T01:31:48;96775.00;;;17.07
79756;BMP280;69239;50.678;12.280;2023-08-06T01:34:23;96773.81;;;17.01
79756;BMP280;69239;50.678;12.280;2023-08-06T01:36:50;96781.41;;;16.99
79756;BMP280;69239;50.678;12.280;2023-08-06T01:39:15;96769.97;;;16.94
79756;BMP280;69239;50.678;12.280;2023-08-06T01:41:41;96770.72;;;16.91
79756;BMP280;69239;50.678;12.280;2023-08-06T01:44:06;96765.38;;;16.88
79756;BMP280;69239;50.678;12.280;2023-08-06T01:46:31;96758.53;;;16.83
79756;BMP280;69239;50.678;12.280;2023-08-06T01:48:57;96756.59;;;16.80
79756;BMP280;69239;50.678;12.280;2023-08-06T01:51:22;96752.41;;;16.79
79756;BMP280;69239;50.678;12.280;2023-08-06T01:53:47;96745.16;;;16.76
79756;BMP280;69239;50.678;12.280;2023-08-06T01:56:13;96731.47;;;16.71
79756;BMP280;69239;50.678;12.280;2023-08-06T01:58:38;96728.78;;;16.67
79756;BMP280;69239;50.678;12.280;2023-08-06T02:01:03;96728.38;;;16.62
79756;BMP280;69239;50.678;12.280;2023-08-06T02:03:29;96727.59;;;16.61
79756;BMP280;69239;50.678;12.280;2023-08-06T02:05:54;96711.63;;;16.54
79756;BMP280;69239;50.678;12.280;2023-08-06T02:08:20;96716.16;;;16.50
79756;BMP280;69239;50.678;12.280;2023-08-06T02:10:45;96721.78;;;16.45
79756;BMP280;69239;50.678;12.280;2023-08-06T02:13:11;96711.50;;;16.40
79756;BMP280;69239;50.678;12.280;2023-08-06T02:15:44;96711.84;;;16.35
79756;BMP280;69239;50.678;12.280;2023-08-06T02:18:12;96717.88;;;16.32
79756;BMP280;69239;50.678;12.280;2023-08-06T02:20:37;96701.19;;;16.28
79756;BMP280;69239;50.678;12.280;2023-08-06T02:23:03;96685.94;;;16.21
79756;BMP280;69239;50.678;12.280;2023-08-06T02:25:28;96698.06;;;16.18
79756;BMP280;69239;50.678;12.280;2023-08-06T02:27:54;96689.69;;;16.16
79756;BMP280;69239;50.678;12.280;2023-08-06T02:30:19;96682.84;;;16.12
79756;BMP280;69239;50.678;12.280;2023-08-06T02:32:44;96688.50;;;16.07
79756;BMP280;69239;50.678;12.280;2023-08-06T02:35:10;96685.06;;;16.06
79756;BMP280;69239;50.678;12.280;2023-08-06T02:37:35;96685.44;;;16.05
79756;BMP280;69239;50.678;12.280;2023-08-06T02:40:00;96677.03;;;15.99
79756;BMP280;69239;50.678;12.280;2023-08-06T02:42:26;96677.41;;;15.98
79756;BMP280;69239;50.678;12.280;2023-08-06T02:44:52;96688.78;;;15.98
79756;BMP280;69239;50.678;12.280;2023-08-06T02:47:20;96693.31;;;15.98
79756;BMP280;69239;50.678;12.280;2023-08-06T02:49:46;96691.03;;;15.96
79756;BMP280;69239;50.678;12.280;2023-08-06T02:52:11;96694.09;;;15.98
79756;BMP280;69239;50.678;12.280;2023-08-06T02:54:36;96687.63;;;15.96
79756;BMP280;69239;50.678;12.280;2023-08-06T02:57:02;96687.63;;;15.96
79756;BMP280;69239;50.678;12.280;2023-08-06T02:59:27;96685.72;;;15.96
79756;BMP280;69239;50.678;12.280;2023-08-06T03:01:53;96687.22;;;15.94
79756;BMP280;69239;50.678;12.280;2023-08-06T03:04:18;96687.22;;;15.94
79756;BMP280;69239;50.678;12.280;2023-08-06T03:06:43;96688.75;;;15.95
79756;BMP280;69239;50.678;12.280;2023-08-06T03:09:09;96682.66;;;15.94
79756;BMP280;69239;50.678;12.280;2023-08-06T03:11:34;96684.19;;;15.95
79756;BMP280;69239;50.678;12.280;2023-08-06T03:13:59;96689.50;;;15.95
79756;BMP280;69239;50.678;12.280;2023-08-06T03:16:25;96683.06;;;15.96
79756;BMP280;69239;50.678;12.280;2023-08-06T03:18:50;96684.19;;;15.95
79756;BMP280;69239;50.678;12.280;2023-08-06T03:21:15;96680.41;;;15.96
79756;BMP280;69239;50.678;12.280;2023-08-06T03:23:41;96675.84;;;15.93
79756;BMP280;69239;50.678;12.280;2023-08-06T03:26:06;96683.47;;;15.98
79756;BMP280;69239;50.678;12.280;2023-08-06T03:28:31;96680.81;;;15.98
79756;BMP280;69239;50.678;12.280;2023-08-06T03:31:01;96688.78;;;15.98
79756;BMP280;69239;50.678;12.280;2023-08-06T03:33:26;96682.72;;;15.98
79756;BMP280;69239;50.678;12.280;2023-08-06T03:35:52;96681.53;;;15.95
79756;BMP280;69239;50.678;12.280;2023-08-06T03:38:17;96680.03;;;15.94
79756;BMP280;69239;50.678;12.280;2023-08-06T03:40:42;96678.50;;;15.93
79756;BMP280;69239;50.678;12.280;2023-08-06T03:43:08;96682.28;;;15.92
79756;BMP280;69239;50.678;12.280;2023-08-06T03:45:33;96674.31;;;15.92
79756;BMP280;69239;50.678;12.280;2023-08-06T03:47:59;96678.13;;;15.91
79756;BMP280;69239;50.678;12.280;2023-08-06T03:50:24;96673.94;;;15.90
79756;BMP280;69239;50.678;12.280;2023-08-06T03:52:49;96667.06;;;15.89
79756;BMP280;69239;50.678;12.280;2023-08-06T03:55:15;96670.44;;;15.86
79756;BMP280;69239;50.678;12.280;2023-08-06T03:57:40;96665.53;;;15.84
79756;BMP280;69239;50.678;12.280;2023-08-06T04:00:06;96661.75;;;15.85
79756;BMP280;69239;50.678;12.280;2023-08-06T04:02:32;96659.84;;;15.86
79756;BMP280;69239;50.678;12.280;2023-08-06T04:04:57;96658.34;;;15.85
79756;BMP280;69239;50.678;12.280;2023-08-06T04:07:24;96656.81;;;15.87
79756;BMP280;69239;50.678;12.280;2023-08-06T04:10:00;96652.28;;;15.88
79756;BMP280;69239;50.678;12.280;2023-08-06T04:12:26;96636.34;;;15.88
79756;BMP280;69239;50.678;12.280;2023-08-06T04:14:52;96628.00;;;15.86
79756;BMP280;69239;50.678;12.280;2023-08-06T04:17:19;96634.81;;;15.87
79756;BMP280;69239;50.678;12.280;2023-08-06T04:19:49;96626.50;;;15.85
79756;BMP280;69239;50.678;12.280;2023-08-06T04:22:15;96635.22;;;15.89
79756;BMP280;69239;50.678;12.280;2023-08-06T04:24:41;96624.22;;;15.87
79756;BMP280;69239;50.678;12.280;2023-08-06T04:27:08;96631.03;;;15.88
79756;BMP280;69239;50.678;12.280;2023-08-06T04:29:34;96623.06;;;15.88
79756;BMP280;69239;50.678;12.280;2023-08-06T04:31:59;96623.50;;;15.90
79756;BMP280;69239;50.678;12.280;2023-08-06T04:34:24;96620.06;;;15.89
79756;BMP280;69239;50.678;12.280;2023-08-06T04:36:50;96614.41;;;15.91
79756;BMP280;69239;50.678;12.280;2023-08-06T04:39:15;96609.09;;;15.91
79756;BMP280;69239;50.678;12.280;2023-08-06T04:41:40;96608.72;;;15.93
79756;BMP280;69239;50.678;12.280;2023-08-06T04:44:06;96612.13;;;15.93
79756;BMP280;69239;50.678;12.280;2023-08-06T04:46:31;96608.75;;;15.96
79756;BMP280;69239;50.678;12.280;2023-08-06T04:48:56;96612.53;;;15.95
79756;BMP280;69239;50.678;12.280;2023-08-06T04:51:22;96607.97;;;15.96
79756;BMP280;69239;50.678;12.280;2023-08-06T04:53:47;96606.84;;;15.97
79756;BMP280;69239;50.678;12.280;2023-08-06T04:56:13;96607.63;;;15.97
79756;BMP280;69239;50.678;12.280;2023-08-06T04:58:38;96615.63;;;16.01
79756;BMP280;69239;50.678;12.280;2023-08-06T05:01:03;96609.91;;;16.02
79756;BMP280;69239;50.678;12.280;2023-08-06T05:03:29;96611.88;;;16.05
79756;BMP280;69239;50.678;12.280;2023-08-06T05:05:54;96611.09;;;16.05
79756;BMP280;69239;50.678;12.280;2023-08-06T05:08:20;96616.03;;;16.06
79756;BMP280;69239;50.678;12.280;2023-08-06T05:10:45;96625.53;;;16.07
79756;BMP280;69239;50.678;12.280;2023-08-06T05:13:11;96618.31;;;16.08
79756;BMP280;69239;50.678;12.280;2023-08-06T05:15:36;96615.28;;;16.09
79756;BMP280;69239;50.678;12.280;2023-08-06T05:18:02;96608.44;;;16.08
79756;BMP280;69239;50.678;12.280;2023-08-06T05:20:28;96609.25;;;16.12
79756;BMP280;69239;50.678;12.280;2023-08-06T05:22:53;96606.63;;;16.12
79756;BMP280;69239;50.678;12.280;2023-08-06T05:25:18;96602.44;;;16.11
79756;BMP280;69239;50.678;12.280;2023-08-06T05:27:43;96601.31;;;16.12
79756;BMP280;69239;50.678;12.280;2023-08-06T05:30:09;96613.44;;;16.17
79756;BMP280;69239;50.678;12.280;2023-08-06T05:32:35;96611.16;;;16.15
79756;BMP280;69239;50.678;12.280;2023-08-06T05:35:00;96604.38;;;16.18
79756;BMP280;69239;50.678;12.280;2023-08-06T05:37:26;96598.66;;;16.16
79756;BMP280;69239;50.678;12.280;2023-08-06T05:39:51;96596.03;;;16.19
79756;BMP280;69239;50.678;12.280;2023-08-06T05:42:16;96601.72;;;16.21
79756;BMP280;69239;50.678;12.280;2023-08-06T05:44:42;96591.84;;;16.18
79756;BMP280;69239;50.678;12.280;2023-08-06T05:47:07;96599.44;;;16.20
79756;BMP280;69239;50.678;12.280;2023-08-06T05:49:32;96597.53;;;16.20
79756;BMP280;69239;50.678;12.280;2023-08-06T05:51:58;96598.69;;;16.19
79756;BMP280;69239;50.678;12.280;2023-08-06T05:54:23;96593.38;;;16.19
79756;BMP280;69239;50.678;12.280;2023-08-06T05:56:48;96596.41;;;16.21
79756;BMP280;69239;50.678;12.280;2023-08-06T05:59:14;96592.63;;;16.22
79756;BMP280;69239;50.678;12.280;2023-08-06T06:01:39;96591.50;;;16.23
79756;BMP280;69239;50.678;12.280;2023-08-06T06:04:04;96587.34;;;16.26
79756;BMP280;69239;50.678;12.280;2023-08-06T06:06:30;96587.34;;;16.26
79756;BMP280;69239;50.678;12.280;2023-08-06T06:08:55;96594.94;;;16.28
79756;BMP280;69239;50.678;12.280;2023-08-06T06:11:21;96586.97;;;16.28
79756;BMP280;69239;50.678;12.280;2023-08-06T06:13:49;96594.19;;;16.31
79756;BMP280;69239;50.678;12.280;2023-08-06T06:16:14;96582.44;;;16.32
79756;BMP280;69239;50.678;12.280;2023-08-06T06:18:39;96584.34;;;16.35
79756;BMP280;69239;50.678;12.280;2023-08-06T06:21:05;96585.13;;;16.39
79756;BMP280;69239;50.678;12.280;2023-08-06T06:23:30;96586.66;;;16.40
79756;BMP280;69239;50.678;12.280;2023-08-06T06:25:55;96590.47;;;16.42
79756;BMP280;69239;50.678;12.280;2023-08-06T06:28:21;96584.03;;;16.43
79756;BMP280;69239;50.678;12.280;2023-08-06T06:30:47;96582.13;;;16.44
79756;BMP280;69239;50.678;12.280;2023-08-06T06:33:12;96584.44;;;16.49
79756;BMP280;69239;50.678;12.280;2023-08-06T06:35:38;96583.31;;;16.50
79756;BMP280;69239;50.678;12.280;2023-08-06T06:38:03;96586.00;;;16.53
79756;BMP280;69239;50.678;12.280;2023-08-06T06:40:28;96588.28;;;16.55
79756;BMP280;69239;50.678;12.280;2023-08-06T06:42:54;96584.09;;;16.54
79756;BMP280;69239;50.678;12.280;2023-08-06T06:45:19;96588.69;;;16.61
79756;BMP280;69239;50.678;12.280;2023-08-06T06:47:45;96581.09;;;16.63
79756;BMP280;69239;50.678;12.280;2023-08-06T06:50:10;96585.28;;;16.67
79756;BMP280;69239;50.678;12.280;2023-08-06T06:52:36;96586.03;;;16.71
79756;BMP280;69239;50.678;12.280;2023-08-06T06:55:02;96586.84;;;16.75
79756;BMP280;69239;50.678;12.280;2023-08-06T06:57:27;96576.22;;;16.79
79756;BMP280;69239;50.678;12.280;2023-08-06T06:59:52;96580.81;;;16.85
79756;BMP280;69239;50.678;12.280;2023-08-06T07:02:18;96567.16;;;16.90
79756;BMP280;69239;50.678;12.280;2023-08-06T07:04:43;96568.69;;;16.95
79756;BMP280;69239;50.678;12.280;2023-08-06T07:07:08;96566.03;;;17.02
79756;BMP280;69239;50.678;12.280;2023-08-06T07:09:34;96564.16;;;17.06
79756;BMP280;69239;50.678;12.280;2023-08-06T07:15:17;96564.59;;;17.26
79756;BMP280;69239;50.678;12.280;2023-08-06T07:17:49;96569.16;;;17.36
79756;BMP280;69239;50.678;12.280;2023-08-06T07:20:47;96545.97;;;17.33
79756;BMP280;69239;50.678;12.280;2023-08-06T07:23:16;96552.44;;;17.53
79756;BMP280;69239;50.678;12.280;2023-08-06T07:25:41;96559.66;;;17.63
79756;BMP280;69239;50.678;12.280;2023-08-06T07:28:08;96562.72;;;17.73
79756;BMP280;69239;50.678;12.280;2023-08-06T07:30:33;96558.16;;;17.80
79756;BMP280;69239;50.678;12.280;2023-08-06T07:32:58;96563.44;;;17.84
79756;BMP280;69239;50.678;12.280;2023-08-06T07:35:24;96557.38;;;17.87
79756;BMP280;69239;50.678;12.280;2023-08-06T07:37:49;96558.13;;;17.91
79756;BMP280;69239;50.678;12.280;2023-08-06T07:40:14;96558.47;;;17.93
79756;BMP280;69239;50.678;12.280;2023-08-06T07:42:40;96547.06;;;17.92
79756;BMP280;69239;50.678;12.280;2023-08-06T07:45:07;96563.81;;;18.00
79756;BMP280;69239;50.678;12.280;2023-08-06T07:47:32;96559.63;;;17.99
79756;BMP280;69239;50.678;12.280;2023-08-06T07:49:58;96561.16;;;18.00
79756;BMP280;69239;50.678;12.280;2023-08-06T07:52:23;96564.56;;;17.97
79756;BMP280;69239;50.678;12.280;2023-08-06T07:54:48;96558.09;;;17.98
79756;BMP280;69239;50.678;12.280;2023-08-06T07:57:14;96563.44;;;17.98
79756;BMP280;69239;50.678;12.280;2023-08-06T07:59:40;96564.97;;;17.95
79756;BMP280;69239;50.678;12.280;2023-08-06T08:02:06;96573.34;;;17.94
79756;BMP280;69239;50.678;12.280;2023-08-06T08:04:31;96565.72;;;17.92
79756;BMP280;69239;50.678;12.280;2023-08-06T08:06:56;96560.41;;;17.89
79756;BMP280;69239;50.678;12.280;2023-08-06T08:09:22;96560.78;;;17.91
79756;BMP280;69239;50.678;12.280;2023-08-06T08:11:47;96562.69;;;17.90
79756;BMP280;69239;50.678;12.280;2023-08-06T08:14:12;96555.47;;;17.91
79756;BMP280;69239;50.678;12.280;2023-08-06T08:16:38;96552.81;;;17.91
79756;BMP280;69239;50.678;12.280;2023-08-06T08:19:03;96551.28;;;17.90
79756;BMP280;69239;50.678;12.280;2023-08-06T08:21:29;96545.16;;;17.93
79756;BMP280;69239;50.678;12.280;2023-08-06T08:23:54;96549.75;;;17.99
79756;BMP280;69239;50.678;12.280;2023-08-06T08:26:20;96548.97;;;18.03
79756;BMP280;69239;50.678;12.280;2023-08-06T08:28:45;96542.84;;;18.06
79756;BMP280;69239;50.678;12.280;2023-08-06T08:31:11;96541.38;;;18.08
79756;BMP280;69239;50.678;12.280;2023-08-06T08:33:39;96541.72;;;18.17
79756;BMP280;69239;50.678;12.280;2023-08-06T08:36:05;96537.53;;;18.23
79756;BMP280;69239;50.678;12.280;2023-08-06T08:38:30;96540.53;;;18.36
79756;BMP280;69239;50.678;12.280;2023-08-06T08:40:55;96531.75;;;18.43
79756;BMP280;69239;50.678;12.280;2023-08-06T08:43:22;96533.56;;;18.53
79756;BMP280;69239;50.678;12.280;2023-08-06T08:45:51;96533.53;;;18.63
79756;BMP280;69239;50.678;12.280;2023-08-06T08:48:18;96527.03;;;18.68
79756;BMP280;69239;50.678;12.280;2023-08-06T08:50:45;96540.34;;;18.75
79756;BMP280;69239;50.678;12.280;2023-08-06T08:53:14;96534.25;;;18.75
79756;BMP280;69239;50.678;12.280;2023-08-06T08:55:40;96525.09;;;18.76
79756;BMP280;69239;50.678;12.280;2023-08-06T08:58:07;96528.16;;;18.78
79756;BMP280;69239;50.678;12.280;2023-08-06T09:00:33;96522.00;;;18.81
79756;BMP280;69239;50.678;12.280;2023-08-06T09:03:00;96531.91;;;18.84
79756;BMP280;69239;50.678;12.280;2023-08-06T09:05:28;96531.53;;;18.85
79756;BMP280;69239;50.678;12.280;2023-08-06T09:08:07;96538.00;;;18.84
79756;BMP280;69239;50.678;12.280;2023-08-06T09:10:36;96540.28;;;18.86
79756;BMP280;69239;50.678;12.280;2023-08-06T09:13:02;96533.47;;;18.85
79756;BMP280;69239;50.678;12.280;2023-08-06T09:15:29;96538.00;;;18.84
79756;BMP280;69239;50.678;12.280;2023-08-06T09:17:55;96531.91;;;18.84
79756;BMP280;69239;50.678;12.280;2023-08-06T09:20:21;96522.00;;;18.84
79756;BMP280;69239;50.678;12.280;2023-08-06T09:22:46;96515.91;;;18.87
79756;BMP280;69239;50.678;12.280;2023-08-06T09:25:21;96532.97;;;18.97
79756;BMP280;69239;50.678;12.280;2023-08-06T09:27:46;96519.63;;;19.00
79756;BMP280;69239;50.678;12.280;2023-08-06T09:30:28;96517.31;;;19.06
79756;BMP280;69239;50.678;12.280;2023-08-06T09:32:55;96522.56;;;19.17
79756;BMP280;69239;50.678;12.280;2023-08-06T09:35:21;96513.72;;;19.27
79756;BMP280;69239;50.678;12.280;2023-08-06T09:37:46;96511.34;;;19.36
79756;BMP280;69239;50.678;12.280;2023-08-06T09:42:51;96503.56;;;19.56
79756;BMP280;69239;50.678;12.280;2023-08-06T09:45:16;96492.44;;;19.61
79756;BMP280;69239;50.678;12.280;2023-08-06T09:47:42;96494.66;;;19.66
79756;BMP280;69239;50.678;12.280;2023-08-06T09:50:16;96476.31;;;19.71
79756;BMP280;69239;50.678;12.280;2023-08-06T09:52:42;96491.34;;;19.92
79756;BMP280;69239;50.678;12.280;2023-08-06T09:55:13;96489.69;;;20.05
79756;BMP280;69239;50.678;12.280;2023-08-06T09:57:40;96479.59;;;20.20
79756;BMP280;69239;50.678;12.280;2023-08-06T10:00:09;96482.31;;;20.47
79756;BMP280;69239;50.678;12.280;2023-08-06T10:02:38;96482.84;;;20.62
79756;BMP280;69239;50.678;12.280;2023-08-06T10:05:07;96472.09;;;20.65
79756;BMP280;69239;50.678;12.280;2023-08-06T10:07:33;96480.44;;;20.71
79756;BMP280;69239;50.678;12.280;2023-08-06T10:09:59;96464.63;;;20.80
79756;BMP280;69239;50.678;12.280;2023-08-06T10:12:26;96465.66;;;20.86
79756;BMP280;69239;50.678;12.280;2023-08-06T10:14:54;96464.06;;;20.92
79756;BMP280;69239;50.678;12.280;2023-08-06T10:17:22;96452.59;;;20.92
79756;BMP280;69239;50.678;12.280;2023-08-06T10:19:49;96455.78;;;21.06
79756;BMP280;69239;50.678;12.280;2023-08-06T10:22:17;96455.69;;;21.13
79756;BMP280;69239;50.678;12.280;2023-08-06T10:24:55;96456.28;;;21.24
79756;BMP280;69239;50.678;12.280;2023-08-06T10:27:28;96457.56;;;21.36
79756;BMP280;69239;50.678;12.280;2023-08-06T10:29:54;96452.38;;;21.49
79756;BMP280;69239;50.678;12.280;2023-08-06T10:32:20;96454.38;;;21.64
79756;BMP280;69239;50.678;12.280;2023-08-06T10:34:58;96437.97;;;21.82
79756;BMP280;69239;50.678;12.280;2023-08-06T10:37:24;96429.91;;;22.02
79756;BMP280;69239;50.678;12.280;2023-08-06T10:39:59;96434.06;;;22.23
79756;BMP280;69239;50.678;12.280;2023-08-06T10:42:28;96433.59;;;22.44
79756;BMP280;69239;50.678;12.280;2023-08-06T10:45:14;96420.00;;;22.67
79756;BMP280;69239;50.678;12.280;2023-08-06T10:47:40;96416.44;;;22.87
79756;BMP280;69239;50.678;12.280;2023-08-06T10:50:12;96413.25;;;23.08
79756;BMP280;69239;50.678;12.280;2023-08-06T10:52:39;96405.94;;;23.37
79756;BMP280;69239;50.678;12.280;2023-08-06T10:55:05;96398.44;;;23.58
79756;BMP280;69239;50.678;12.280;2023-08-06T10:57:30;96402.56;;;23.75
79756;BMP280;69239;50.678;12.280;2023-08-06T10:59:56;96393.13;;;23.83
79756;BMP280;69239;50.678;12.280;2023-08-06T11:02:21;96388.38;;;23.87
79756;BMP280;69239;50.678;12.280;2023-08-06T11:04:48;96380.97;;;23.91
79756;BMP280;69239;50.678;12.280;2023-08-06T11:07:13;96385.47;;;23.81
79756;BMP280;69239;50.678;12.280;2023-08-06T11:09:38;96392.69;;;23.72
79756;BMP280;69239;50.678;12.280;2023-08-06T11:12:09;96393.75;;;23.62
79756;BMP280;69239;50.678;12.280;2023-08-06T11:14:35;96400.66;;;23.46
79756;BMP280;69239;50.678;12.280;2023-08-06T11:17:01;96406.31;;;23.23
79756;BMP280;69239;50.678;12.280;2023-08-06T11:19:26;96404.25;;;22.86
79756;BMP280;69239;50.678;12.280;2023-08-06T11:21:51;96403.53;;;22.49
79756;BMP280;69239;50.678;12.280;2023-08-06T11:24:17;96393.50;;;22.21
79756;BMP280;69239;50.678;12.280;2023-08-06T11:26:42;96389.97;;;22.08
79756;BMP280;69239;50.678;12.280;2023-08-06T11:29:09;96393.13;;;22.02
79756;BMP280;69239;50.678;12.280;2023-08-06T11:31:36;96393.94;;;21.99
79756;BMP280;69239;50.678;12.280;2023-08-06T11:34:01;96386.75;;;21.96
79756;BMP280;69239;50.678;12.280;2023-08-06T11:36:30;96383.31;;;21.96
79756;BMP280;69239;50.678;12.280;2023-08-06T11:38:58;96378.63;;;22.00
79756;BMP280;69239;50.678;12.280;2023-08-06T11:41:23;96378.56;;;22.04
79756;BMP280;69239;50.678;12.280;2023-08-06T11:43:48;96379.31;;;22.04
79756;BMP280;69239;50.678;12.280;2023-08-06T11:46:14;96370.19;;;22.02
79756;BMP280;69239;50.678;12.280;2023-08-06T11:48:58;96370.88;;;22.06
79756;BMP280;69239;50.678;12.280;2023-08-06T11:51:27;96371.22;;;22.08
79756;BMP280;69239;50.678;12.280;2023-08-06T11:53:56;96375.47;;;22.05
79756;BMP280;69239;50.678;12.280;2023-08-06T11:56:22;96381.59;;;22.06
79756;BMP280;69239;50.678;12.280;2023-08-06T11:58:48;96378.56;;;22.04
79756;BMP280;69239;50.678;12.280;2023-08-06T12:01:13;96374.88;;;21.97
79756;BMP280;69239;50.678;12.280;2023-08-06T12:03:42;96381.22;;;21.87
79756;BMP280;69239;50.678;12.280;2023-08-06T12:06:07;96373.03;;;21.75
79756;BMP280;69239;50.678;12.280;2023-08-06T12:08:33;96362.63;;;21.60
79756;BMP280;69239;50.678;12.280;2023-08-06T12:10:59;96355.50;;;21.54
79756;BMP280;69239;50.678;12.280;2023-08-06T12:13:24;96341.41;;;21.50
79756;BMP280;69239;50.678;12.280;2023-08-06T12:15:49;96344.09;;;21.50
79756;BMP280;69239;50.678;12.280;2023-08-06T12:18:17;96346.63;;;21.57
79756;BMP280;69239;50.678;12.280;2023-08-06T12:20:43;96337.28;;;21.65
79756;BMP280;69239;50.678;12.280;2023-08-06T12:23:08;96341.66;;;21.75
79756;BMP280;69239;50.678;12.280;2023-08-06T12:25:35;96337.50;;;21.90
79756;BMP280;69239;50.678;12.280;2023-08-06T12:28:00;96334.34;;;22.12
79756;BMP280;69239;50.678;12.280;2023-08-06T12:30:25;96331.81;;;22.37
79756;BMP280;69239;50.678;12.280;2023-08-06T12:32:51;96327.47;;;22.59
79756;BMP280;69239;50.678;12.280;2023-08-06T12:35:17;96322.41;;;22.77
79756;BMP280;69239;50.678;12.280;2023-08-06T12:37:42;96322.66;;;22.96
79756;BMP280;69239;50.678;12.280;2023-08-06T12:40:09;96327.75;;;23.06
79756;BMP280;69239;50.678;12.280;2023-08-06T12:42:34;96322.41;;;23.19
79756;BMP280;69239;50.678;12.280;2023-08-06T12:45:00;96324.06;;;23.29
79756;BMP280;69239;50.678;12.280;2023-08-06T12:47:25;96321.38;;;23.29
79756;BMP280;69239;50.678;12.280;2023-08-06T12:49:50;96331.88;;;23.24
79756;BMP280;69239;50.678;12.280;2023-08-06T12:52:16;96324.72;;;23.04
79756;BMP280;69239;50.678;12.280;2023-08-06T12:54:42;96327.41;;;22.92
79756;BMP280;69239;50.678;12.280;2023-08-06T12:57:07;96328.72;;;22.84
79756;BMP280;69239;50.678;12.280;2023-08-06T12:59:33;96324.66;;;22.79
79756;BMP280;69239;50.678;12.280;2023-08-06T13:01:59;96313.25;;;22.75
79756;BMP280;69239;50.678;12.280;2023-08-06T13:04:24;96316.38;;;22.73
79756;BMP280;69239;50.678;12.280;2023-08-06T13:06:49;96310.63;;;22.88
79756;BMP280;69239;50.678;12.280;2023-08-06T13:09:15;96312.84;;;23.18
79756;BMP280;69239;50.678;12.280;2023-08-06T13:11:41;96308.94;;;23.48
79756;BMP280;69239;50.678;12.280;2023-08-06T13:14:11;96310.13;;;23.60
79756;BMP280;69239;50.678;12.280;2023-08-06T13:16:38;96314.53;;;23.53
79756;BMP280;69239;50.678;12.280;2023-08-06T13:19:05;96316.78;;;23.42
79756;BMP280;69239;50.678;12.280;2023-08-06T13:21:34;96322.34;;;23.35
79756;BMP280;69239;50.678;12.280;2023-08-06T13:24:01;96327.81;;;23.32
79756;BMP280;69239;50.678;12.280;2023-08-06T13:26:28;96341.13;;;23.23
79756;BMP280;69239;50.678;12.280;2023-08-06T13:28:54;96372.53;;;23.09
79756;BMP280;69239;50.678;12.280;2023-08-06T13:31:19;96363.44;;;22.91
79756;BMP280;69239;50.678;12.280;2023-08-06T13:33:45;96364.84;;;22.66
79756;BMP280;69239;50.678;12.280;2023-08-06T13:36:10;96366.09;;;22.46
79756;BMP280;69239;50.678;12.280;2023-08-06T13:38:36;96366.94;;;22.26
79756;BMP280;69239;50.678;12.280;2023-08-06T13:41:01;96370.88;;;22.06
79756;BMP280;69239;50.678;12.280;2023-08-06T13:43:27;96369.66;;;21.90
79756;BMP280;69239;50.678;12.280;2023-08-06T13:45:53;96360.84;;;21.74
79756;BMP280;69239;50.678;12.280;2023-08-06T13:48:18;96356.44;;;21.63
79756;BMP280;69239;50.678;12.280;2023-08-06T13:50:43;96350.00;;;21.61
79756;BMP280;69239;50.678;12.280;2023-08-06T13:53:10;96346.00;;;21.69
79756;BMP280;69239;50.678;12.280;2023-08-06T13:55:35;96351.91;;;21.80
79756;BMP280;69239;50.678;12.280;2023-08-06T13:58:00;96352.91;;;21.86
79756;BMP280;69239;50.678;12.280;2023-08-06T14:00:26;96350.22;;;21.86
79756;BMP280;69239;50.678;12.280;2023-08-06T14:02:51;96352.97;;;21.83
79756;BMP280;69239;50.678;12.280;2023-08-06T14:05:16;96353.88;;;21.76